Time;durP1;ratioP1;P1;durP2;ratioP2;P2;SDS_P1;SDS_P2;PMS_P1;PMS_P2;Temp;Humidity;BMP_temperature;BMP_pressure;BME280_temperature;BME280_humidity;BME280_pressure;Samples;Min_cycle;Max_cycle;Signal;HPM_P1;HPM_P2
2022/06/28 00:01:37;;;;;;;6.07;4.38;;;;;;;13.05;88.63;101999.69;5055130;28;20035;-78
2022/06/28 00:04:06;;;;;;;6.97;4.38;;;;;;;13.02;88.61;101997.22;5058544;28;20040;-78
2022/06/28 00:06:31;;;;;;;5.60;4.50;;;;;;;13.03;89.20;101998.94;5054879;28;20529;-77
2022/06/28 00:08:57;;;;;;;5.28;4.68;;;;;;;13.01;89.66;101993.72;5050361;28;20021;-78
2022/06/28 00:11:22;;;;;;;6.22;4.22;;;;;;;12.96;88.98;101986.00;5046582;28;20094;-78
2022/06/28 00:13:47;;;;;;;7.65;4.55;;;;;;;12.96;89.17;101993.16;5055058;28;20121;-79
2022/06/28 00:16:16;;;;;;;5.68;4.25;;;;;;;12.96;90.07;101987.84;5054640;28;20452;-78
2022/06/28 00:18:42;;;;;;;4.47;4.07;;;;;;;12.94;88.67;102001.28;5062596;28;20032;-78
2022/06/28 00:21:09;;;;;;;4.80;4.40;;;;;;;12.94;89.34;101998.59;5054388;28;20025;-77
2022/06/28 00:23:36;;;;;;;8.20;4.35;;;;;;;12.89;89.66;101995.41;5053489;28;20033;-78
2022/06/28 00:26:03;;;;;;;7.25;4.10;;;;;;;12.86;90.07;102003.59;5046765;28;20041;-78
2022/06/28 00:28:28;;;;;;;5.13;4.05;;;;;;;12.81;88.87;102003.06;5053140;28;20037;-77
2022/06/28 00:30:53;;;;;;;5.50;4.28;;;;;;;12.83;89.92;102008.28;5057901;28;20079;-78
2022/06/28 00:33:19;;;;;;;5.25;4.35;;;;;;;12.77;89.97;102001.56;5054142;28;20074;-78
2022/06/28 00:35:44;;;;;;;6.45;4.35;;;;;;;12.78;89.47;102006.78;5051377;28;20024;-78
2022/06/28 00:38:09;;;;;;;7.20;4.20;;;;;;;12.74;89.43;102001.78;5048283;28;20074;-79
2022/06/28 00:40:44;;;;;;;6.10;4.78;;;;;;;12.72;89.49;102006.34;5053505;28;20112;-78
2022/06/28 00:43:10;;;;;;;4.97;3.88;;;;;;;12.71;89.03;102013.50;5053990;28;20033;-78
2022/06/28 00:45:35;;;;;;;7.57;4.65;;;;;;;12.63;88.97;102010.47;5053796;28;20116;-78
2022/06/28 00:48:01;;;;;;;4.40;4.10;;;;;;;12.63;88.99;102013.16;5053438;28;20472;-78
2022/06/28 00:50:26;;;;;;;8.68;4.43;;;;;;;12.59;89.09;102009.00;5053412;28;20484;-78
2022/06/28 00:53:00;;;;;;;5.70;4.28;;;;;;;12.60;90.05;102016.00;5054444;28;20085;-78
2022/06/28 00:55:26;;;;;;;7.22;4.35;;;;;;;12.56;89.67;102012.69;5055346;28;20061;-78
2022/06/28 00:57:51;;;;;;;5.43;4.75;;;;;;;12.57;89.62;102008.22;5061031;28;20032;-79
2022/06/28 01:00:17;;;;;;;7.03;4.50;;;;;;;12.55;89.53;102007.47;5060229;28;20115;-79
2022/06/28 01:02:42;;;;;;;5.38;4.88;;;;;;;12.52;89.89;102010.34;5045449;28;20048;-77
2022/06/28 01:05:07;;;;;;;8.00;4.80;;;;;;;12.49;89.97;102015.84;5054619;28;20059;-79
2022/06/28 01:07:34;;;;;;;7.07;4.32;;;;;;;12.50;90.25;102014.91;5053374;28;20028;-78
2022/06/28 01:09:59;;;;;;;6.97;4.70;;;;;;;12.48;89.45;102014.16;5053849;28;20103;-78
2022/06/28 01:12:25;;;;;;;10.10;5.25;;;;;;;12.45;90.02;102011.69;5051273;28;20040;-78
2022/06/28 01:14:50;;;;;;;6.55;4.50;;;;;;;12.38;89.98;102006.78;5053034;28;20433;-78
2022/06/28 01:17:15;;;;;;;8.00;4.40;;;;;;;12.43;90.63;102009.13;5053552;28;20048;-78
2022/06/28 01:19:41;;;;;;;7.03;4.75;;;;;;;12.36;89.37;102005.19;5053422;28;20032;-78
2022/06/28 01:22:10;;;;;;;6.03;5.00;;;;;;;12.29;90.00;102015.38;5053401;28;20475;-78
2022/06/28 01:24:35;;;;;;;;;;;;;;;12.45;88.21;102015.22;5052706;28;20039;-79
2022/06/28 01:27:00;;;;;;;6.20;4.27;;;;;;;12.35;89.37;102020.28;5051911;28;19909;-79
2022/06/28 01:29:27;;;;;;;7.15;4.85;;;;;;;12.31;89.84;102023.28;5051502;28;20021;-79
2022/06/28 01:31:52;;;;;;;7.75;5.40;;;;;;;12.28;90.30;102023.47;5051938;28;20025;-78
2022/06/28 01:34:19;;;;;;;6.63;5.03;;;;;;;12.27;90.10;102022.59;5053643;28;20432;-79
2022/06/28 01:36:44;;;;;;;6.85;5.15;;;;;;;12.24;89.85;102025.47;5050310;28;20120;-79
2022/06/28 01:39:09;;;;;;;6.38;4.47;;;;;;;12.22;89.50;102024.69;5052494;28;20116;-78
2022/06/28 01:41:36;;;;;;;6.55;4.97;;;;;;;12.19;90.64;102022.22;5053306;28;20033;-79
2022/06/28 01:44:04;;;;;;;6.20;4.85;;;;;;;12.15;90.75;102023.41;5045731;28;20033;-78
2022/06/28 01:46:30;;;;;;;6.80;5.03;;;;;;;12.15;90.43;102028.72;5060343;28;20521;-78
2022/06/28 01:48:56;;;;;;;6.35;4.72;;;;;;;12.13;89.76;102023.50;5054117;28;20111;-78
2022/06/28 01:51:21;;;;;;;6.00;4.93;;;;;;;12.11;89.60;102028.06;5073150;28;20483;-78
2022/06/28 01:53:47;;;;;;;8.77;4.95;;;;;;;12.07;89.73;102031.03;5072058;28;20128;-78
2022/06/28 01:56:12;;;;;;;7.20;4.75;;;;;;;12.03;89.02;102028.56;5055898;28;20171;-78
2022/06/28 01:58:40;;;;;;;7.10;4.72;;;;;;;12.02;89.02;102032.19;5033243;28;20033;-78
2022/06/28 02:01:05;;;;;;;5.90;4.60;;;;;;;12.01;89.88;102032.28;5033543;28;20376;-79
2022/06/28 02:03:31;;;;;;;7.80;5.55;;;;;;;11.98;89.53;102029.81;5032713;28;20055;-78
2022/06/28 02:05:56;;;;;;;7.18;4.70;;;;;;;11.98;89.16;102035.13;5033049;28;20029;-78
2022/06/28 02:08:21;;;;;;;6.15;5.05;;;;;;;11.95;89.76;102033.50;5032961;28;20396;-78
2022/06/28 02:10:47;;;;;;;9.25;5.22;;;;;;;11.95;89.16;102033.50;5036729;28;20028;-78
2022/06/28 02:13:12;;;;;;;7.80;5.18;;;;;;;11.89;89.48;102030.34;5052774;28;20048;-78
2022/06/28 02:15:38;;;;;;;5.57;4.55;;;;;;;11.91;89.71;102037.34;5053047;28;20468;-79
2022/06/28 02:18:03;;;;;;;9.20;5.10;;;;;;;11.88;89.14;102041.97;5044125;28;20044;-78
2022/06/28 02:20:29;;;;;;;4.78;4.38;;;;;;;11.87;89.74;102045.56;5033136;28;20091;-79
2022/06/28 02:22:54;;;;;;;7.03;4.70;;;;;;;11.82;89.43;102052.06;5033176;28;20022;-78
2022/06/28 02:25:19;;;;;;;6.32;4.82;;;;;;;11.79;89.44;102049.56;5033077;28;20162;-78
2022/06/28 02:27:47;;;;;;;6.55;4.80;;;;;;;11.77;89.52;102054.13;5031668;28;20072;-78
2022/06/28 02:30:13;;;;;;;5.93;4.90;;;;;;;11.74;90.13;102058.78;5033155;28;20029;-79
2022/06/28 02:32:38;;;;;;;6.63;4.80;;;;;;;11.70;89.53;102054.63;5032655;28;20384;-78
2022/06/28 02:40:32;;;;;;;6.47;4.75;;;;;;;11.67;89.12;102063.63;5056233;28;20067;-79
2022/06/28 02:43:00;;;;;;;8.45;4.70;;;;;;;11.61;88.86;102064.03;5056281;28;20056;-79
2022/06/28 02:45:32;;;;;;;5.68;4.75;;;;;;;11.59;89.26;102068.56;5056375;28;20025;-79
2022/06/28 02:47:58;;;;;;;5.45;4.80;;;;;;;11.57;89.15;102073.13;5046178;28;20034;-79
2022/06/28 02:50:24;;;;;;;6.32;5.10;;;;;;;11.54;89.06;102079.50;5036609;28;20187;-78
2022/06/28 02:52:50;;;;;;;5.93;4.50;;;;;;;11.47;88.81;102070.16;5040332;28;20029;-78
2022/06/28 02:55:15;;;;;;;7.80;4.90;;;;;;;11.48;89.69;102075.41;5056719;28;20100;-78
2022/06/28 02:57:42;;;;;;;6.95;4.30;;;;;;;11.54;89.86;102090.16;5055788;28;20502;-78
2022/06/28 03:00:11;;;;;;;8.15;4.70;;;;;;;11.53;90.37;102092.91;5056487;28;20029;-78
2022/06/28 03:02:38;;;;;;;7.40;4.22;;;;;;;11.50;89.40;102096.59;5055547;28;20024;-78
2022/06/28 03:05:06;;;;;;;6.32;4.22;;;;;;;11.40;88.97;102098.94;5035185;28;20583;-78
2022/06/28 03:07:31;;;;;;;8.57;4.85;;;;;;;11.38;89.88;102090.22;5036734;28;20104;-78
2022/06/28 03:09:57;;;;;;;8.23;4.95;;;;;;;11.39;89.50;102101.69;5036166;28;20113;-78
2022/06/28 03:12:22;;;;;;;5.55;4.20;;;;;;;11.38;89.44;102097.34;5036313;28;20034;-78
2022/06/28 03:14:47;;;;;;;6.78;3.97;;;;;;;11.39;89.65;102104.38;5055953;28;20086;-78
2022/06/28 03:17:12;;;;;;;8.50;4.13;;;;;;;11.38;89.84;102105.34;5055646;28;20028;-78
2022/06/28 03:19:38;;;;;;;6.40;4.28;;;;;;;11.40;89.60;102108.75;5055661;28;20056;-79
2022/06/28 03:22:03;;;;;;;7.13;4.18;;;;;;;11.34;89.43;102103.78;5056245;28;20029;-79
2022/06/28 03:24:28;;;;;;;6.10;3.75;;;;;;;11.33;88.82;102105.59;5047704;28;20495;-79
2022/06/28 03:26:54;;;;;;;6.53;3.70;;;;;;;11.32;90.08;102109.19;5035158;28;20069;-78
2022/06/28 03:29:19;;;;;;;8.07;4.10;;;;;;;11.30;90.02;102109.28;5036294;28;20033;-78
2022/06/28 03:31:44;;;;;;;8.05;4.15;;;;;;;11.30;89.88;102111.94;5039340;28;20126;-78
2022/06/28 03:34:10;;;;;;;4.10;3.70;;;;;;;11.25;89.17;102115.84;5055058;28;20025;-78
2022/06/28 03:36:35;;;;;;;7.03;3.70;;;;;;;11.17;88.89;102110.09;5056285;28;20021;-79
2022/06/28 03:39:00;;;;;;;6.65;3.95;;;;;;;11.24;89.85;102117.66;5055874;28;20488;-79
2022/06/28 03:41:25;;;;;;;8.02;4.25;;;;;;;11.23;89.93;102120.41;5056147;28;20037;-79
2022/06/28 03:43:52;;;;;;;8.68;4.20;;;;;;;11.24;90.45;102125.63;5056005;28;20029;-78
2022/06/28 03:46:18;;;;;;;6.22;3.92;;;;;;;11.22;89.34;102126.66;5053924;28;20644;-79
2022/06/28 03:48:45;;;;;;;5.18;3.63;;;;;;;11.23;89.79;102131.03;5036555;28;20032;-78
2022/06/28 03:51:11;;;;;;;5.07;3.90;;;;;;;11.21;89.80;102133.78;5035618;28;20029;-78
2022/06/28 03:53:37;;;;;;;5.90;4.05;;;;;;;11.18;90.40;102127.78;5035544;28;20100;-78
2022/06/28 03:56:03;;;;;;;7.15;4.03;;;;;;;11.20;90.08;102121.41;5035761;28;20079;-78
2022/06/28 03:58:28;;;;;;;7.90;4.65;;;;;;;11.19;89.74;102121.50;5035858;28;20060;-78
2022/06/28 04:00:54;;;;;;;4.88;3.53;;;;;;;11.20;90.13;102117.91;5042366;28;20071;-79
2022/06/28 04:03:19;;;;;;;7.28;4.00;;;;;;;11.21;89.93;102127.63;5056870;28;20033;-79
2022/06/28 04:05:44;;;;;;;11.13;3.97;;;;;;;11.23;89.26;102128.38;5058019;28;20029;-77
2022/06/28 04:08:10;;;;;;;9.15;4.10;;;;;;;11.23;89.65;102128.38;5059703;28;20021;-78
2022/06/28 04:10:36;;;;;;;6.55;3.63;;;;;;;11.24;89.75;102133.59;5059803;28;20032;-78
2022/06/28 04:13:01;;;;;;;9.50;4.10;;;;;;;11.19;89.67;102124.16;5055691;28;20089;-79
2022/06/28 04:15:26;;;;;;;7.15;4.03;;;;;;;11.22;90.39;102131.97;5056233;28;20083;-78
2022/06/28 04:17:52;;;;;;;5.82;4.00;;;;;;;11.21;90.90;102128.47;5055310;28;20029;-78
2022/06/28 04:20:17;;;;;;;8.70;4.00;;;;;;;11.22;90.97;102124.84;5057334;28;20414;-78
2022/06/28 04:22:42;;;;;;;6.72;4.10;;;;;;;11.24;90.60;102130.06;5055056;28;20024;-79
2022/06/28 04:25:08;;;;;;;8.43;4.00;;;;;;;11.21;90.97;102128.47;5055099;28;20021;-78
2022/06/28 04:27:34;;;;;;;5.63;3.85;;;;;;;11.26;91.33;102129.03;5054913;28;20349;-79
2022/06/28 04:29:59;;;;;;;8.88;3.83;;;;;;;11.27;91.55;102136.09;5054902;28;20067;-78
2022/06/28 04:32:25;;;;;;;6.72;3.85;;;;;;;11.29;90.32;102128.88;5054813;28;20021;-78
2022/06/28 04:34:50;;;;;;;10.18;3.90;;;;;;;11.34;91.26;102136.59;5054691;28;20083;-78
2022/06/28 04:37:16;;;;;;;9.80;4.00;;;;;;;11.36;91.39;102136.47;5054451;28;20029;-79
2022/06/28 04:39:41;;;;;;;6.03;3.78;;;;;;;11.39;90.86;102129.19;5054167;28;20044;-79
2022/06/28 04:42:06;;;;;;;7.13;4.28;;;;;;;11.46;91.10;102135.84;5054773;28;20033;-79
2022/06/28 04:44:32;;;;;;;5.80;3.72;;;;;;;11.47;91.53;102123.38;5054423;28;20029;-78
2022/06/28 04:46:57;;;;;;;7.95;3.60;;;;;;;11.59;91.51;102127.97;5054322;28;20029;-78
2022/06/28 04:49:22;;;;;;;8.30;3.83;;;;;;;11.64;91.31;102125.03;5055077;28;20027;-78
2022/06/28 04:51:48;;;;;;;7.95;4.03;;;;;;;11.72;90.52;102129.88;5046638;28;20399;-78
2022/06/28 04:54:13;;;;;;;9.55;3.33;;;;;;;11.82;90.44;102131.03;5034860;28;20091;-78
2022/06/28 04:56:38;;;;;;;8.68;3.65;;;;;;;11.89;90.51;102127.06;5034613;28;20037;-79
2022/06/28 04:59:03;;;;;;;9.43;3.88;;;;;;;12.05;89.87;102136.78;5041426;28;20040;-79
2022/06/28 05:01:29;;;;;;;8.95;3.38;;;;;;;12.16;90.07;102137.00;5053373;28;20082;-79
2022/06/28 05:03:54;;;;;;;7.72;3.17;;;;;;;12.25;89.39;102136.38;5053935;28;20049;-79
2022/06/28 05:06:19;;;;;;;6.68;3.80;;;;;;;12.42;89.82;102139.78;5054152;28;20029;-79
2022/06/28 05:08:45;;;;;;;10.88;3.72;;;;;;;12.54;89.14;102134.53;5053802;28;20021;-79
2022/06/28 05:11:10;;;;;;;6.53;3.33;;;;;;;12.70;88.48;102145.06;5053529;28;20051;-79
2022/06/28 05:13:36;;;;;;;8.05;3.38;;;;;;;12.88;87.71;102150.16;5053400;28;20021;-79
2022/06/28 05:16:01;;;;;;;9.40;4.18;;;;;;;13.05;87.24;102141.03;5052782;28;20108;-78
2022/06/28 05:18:27;;;;;;;8.43;3.20;;;;;;;13.14;87.47;102138.63;5053356;28;20024;-79
2022/06/28 05:20:52;;;;;;;8.57;3.47;;;;;;;13.25;86.72;102140.56;5053480;28;20467;-78
2022/06/28 05:23:17;;;;;;;6.22;3.17;;;;;;;13.37;86.15;102146.06;5053773;28;20048;-78
2022/06/28 05:25:43;;;;;;;7.93;3.50;;;;;;;13.41;85.99;102140.41;5052199;28;20200;-78
2022/06/28 05:28:08;;;;;;;9.85;3.22;;;;;;;13.52;86.51;102142.34;5053142;28;20029;-79
2022/06/28 05:30:33;;;;;;;12.00;4.22;;;;;;;13.61;85.52;102132.88;5053715;28;20415;-79
2022/06/28 05:32:59;;;;;;;9.37;3.43;;;;;;;13.73;84.71;102132.00;5053849;28;20029;-78
2022/06/28 05:35:24;;;;;;;5.30;2.85;;;;;;;13.90;84.51;102135.31;5054100;28;20291;-79
2022/06/28 05:37:49;;;;;;;9.82;3.33;;;;;;;14.06;84.26;102127.94;5053932;28;20025;-79
2022/06/28 05:40:15;;;;;;;9.18;3.50;;;;;;;14.26;83.81;102121.16;5053648;28;20451;-79
2022/06/28 05:42:41;;;;;;;8.93;2.92;;;;;;;14.42;83.50;102118.22;5052221;28;20036;-79
2022/06/28 05:45:08;;;;;;;8.27;2.60;;;;;;;14.67;82.76;102119.13;5053906;28;20057;-78
2022/06/28 05:47:33;;;;;;;6.95;2.55;;;;;;;14.84;81.18;102121.44;5052416;28;20064;-79
2022/06/28 05:49:59;;;;;;;9.20;3.28;;;;;;;14.96;80.29;102108.97;5053296;28;20061;-78
2022/06/28 05:52:24;;;;;;;10.35;2.90;;;;;;;15.20;80.19;102111.59;5053755;28;20033;-79
2022/06/28 05:54:50;;;;;;;7.15;2.78;;;;;;;15.34;79.09;102105.19;5043097;28;20353;-78
2022/06/28 05:57:15;;;;;;;11.63;2.97;;;;;;;15.57;78.04;102113.25;5049115;28;20034;-79
2022/06/28 05:59:41;;;;;;;8.95;2.92;;;;;;;15.75;76.68;102105.63;5033410;28;20025;-79
2022/06/28 06:02:06;;;;;;;6.80;2.17;;;;;;;15.96;76.98;102108.47;5034009;28;20033;-79
2022/06/28 06:04:32;;;;;;;8.00;2.78;;;;;;;16.17;75.68;102105.88;5033897;28;20054;-79
2022/06/28 06:06:57;;;;;;;10.95;2.70;;;;;;;16.33;74.96;102110.88;5049331;28;20032;-79
2022/06/28 06:09:22;;;;;;;14.32;3.78;;;;;;;16.58;73.75;102107.03;5033267;28;20021;-80
2022/06/28 06:11:48;;;;;;;9.85;3.53;;;;;;;16.75;72.96;102114.56;5034154;28;20029;-80
2022/06/28 06:14:16;;;;;;;9.38;2.63;;;;;;;16.87;72.77;102117.22;5053713;28;20483;-81
2022/06/28 06:16:41;;;;;;;10.57;2.58;;;;;;;17.10;72.24;102121.53;5053889;28;20025;-81
2022/06/28 06:19:06;;;;;;;10.40;2.45;;;;;;;17.27;70.45;102116.56;5047585;28;20029;-81
2022/06/28 06:21:32;;;;;;;11.15;2.83;;;;;;;17.46;71.10;102115.84;5059084;28;20039;-81
2022/06/28 06:23:57;;;;;;;13.65;2.97;;;;;;;17.61;67.95;102121.75;5064164;28;20125;-80
2022/06/28 06:26:24;;;;;;;8.68;2.45;;;;;;;17.83;68.71;102128.78;5056446;28;20033;-82
2022/06/28 06:28:50;;;;;;;8.45;2.50;;;;;;;18.09;68.42;102135.44;5055780;28;20036;-82
2022/06/28 06:31:15;;;;;;;10.65;2.60;;;;;;;18.31;66.40;102130.84;5050952;28;20368;-81
2022/06/28 06:33:41;;;;;;;10.10;2.58;;;;;;;18.53;65.34;102131.59;5058828;28;20036;-82
2022/06/28 06:36:06;;;;;;;11.55;3.00;;;;;;;18.65;65.25;102128.66;5056581;28;20029;-81
2022/06/28 06:38:31;;;;;;;8.93;2.80;;;;;;;18.73;62.93;102133.34;5050457;28;20065;-81
2022/06/28 06:40:58;;;;;;;10.57;2.83;;;;;;;19.04;63.73;102125.19;5063036;28;20036;-81
2022/06/28 06:43:27;;;;;;;8.20;2.40;;;;;;;19.15;62.99;102143.03;5062836;28;20295;-81
2022/06/28 06:45:56;;;;;;;9.60;2.88;;;;;;;19.38;61.54;102128.28;5047456;28;20029;-80
2022/06/28 06:48:22;;;;;;;;;;;;;;;19.66;67.25;102131.03;5055465;28;20040;-81
2022/06/28 06:50:48;;;;;;;13.82;2.85;;;;;;;19.68;59.52;102142.53;5064521;28;19913;-81
2022/06/28 06:53:13;;;;;;;9.45;2.75;;;;;;;19.80;59.83;102124.38;5054273;28;20044;-82
2022/06/28 06:55:38;;;;;;;13.63;2.92;;;;;;;20.06;56.59;102135.31;5051233;28;20493;-81
2022/06/28 06:58:04;;;;;;;6.07;2.22;;;;;;;20.26;57.01;102132.56;5050006;28;20057;-81
2022/06/28 07:00:29;;;;;;;10.35;2.38;;;;;;;20.36;55.87;102146.00;5056959;28;20029;-80
2022/06/28 07:02:55;;;;;;;8.25;2.05;;;;;;;20.65;56.63;102140.44;5056239;28;20070;-81
2022/06/28 07:05:20;;;;;;;12.45;2.35;;;;;;;20.78;53.90;102146.31;5056141;28;20048;-81
2022/06/28 07:07:45;;;;;;;7.03;2.05;;;;;;;20.89;55.56;102145.25;5066310;28;20028;-80
2022/06/28 07:10:11;;;;;;;6.28;2.08;;;;;;;21.18;55.09;102139.63;5059968;28;20029;-81
2022/06/28 07:12:36;;;;;;;8.35;2.40;;;;;;;21.21;52.08;102146.56;5056210;28;20047;-81
2022/06/28 07:15:02;;;;;;;6.07;2.20;;;;;;;21.58;52.05;102157.19;5055728;28;20463;-80
2022/06/28 07:17:27;;;;;;;9.88;2.60;;;;;;;21.73;52.52;102141.22;5055173;28;20515;-81
2022/06/28 07:19:52;;;;;;;9.63;2.17;;;;;;;21.90;50.77;102146.72;5060786;28;20029;-80
2022/06/28 07:22:18;;;;;;;8.40;2.53;;;;;;;21.85;49.71;102141.81;5059915;28;20087;-81
2022/06/28 07:24:43;;;;;;;10.40;2.20;;;;;;;22.15;51.87;102136.88;5066754;28;20056;-80
2022/06/28 07:27:08;;;;;;;6.05;2.30;;;;;;;22.31;48.73;102139.66;5052881;28;20361;-81
2022/06/28 07:29:34;;;;;;;7.82;1.95;;;;;;;22.59;49.35;102135.88;5054738;28;20120;-81
2022/06/28 07:31:59;;;;;;;9.32;2.35;;;;;;;22.65;48.07;102138.75;5055721;28;20045;-81
2022/06/28 07:34:24;;;;;;;11.00;2.30;;;;;;;22.72;47.54;102139.78;5054631;28;20357;-80
2022/06/28 07:36:50;;;;;;;5.67;2.00;;;;;;;22.83;47.40;102137.75;5055744;28;20033;-81
2022/06/28 07:39:15;;;;;;;6.53;2.13;;;;;;;22.94;45.73;102134.75;5054873;28;20378;-80
2022/06/28 07:41:41;;;;;;;8.23;2.20;;;;;;;23.22;44.76;102142.59;5055700;28;20087;-80
2022/06/28 07:44:06;;;;;;;9.90;2.57;;;;;;;23.19;44.12;102132.91;5055247;28;20033;-80
2022/06/28 07:46:32;;;;;;;6.40;2.10;;;;;;;23.36;45.03;102133.75;5055750;28;20340;-79
2022/06/28 07:48:57;;;;;;;10.73;2.20;;;;;;;23.48;44.09;102134.22;5054340;28;20494;-80
2022/06/28 07:54:07;;;;;;;8.45;2.22;;;;;;;23.96;42.67;102137.88;5055526;28;20099;-80
2022/06/28 07:56:33;;;;;;;9.82;1.92;;;;;;;24.05;43.75;102136.00;5054750;28;20025;-81
2022/06/28 07:58:58;;;;;;;9.02;1.90;;;;;;;24.35;42.99;102131.63;5054657;28;20036;-80
2022/06/28 08:01:24;;;;;;;9.15;2.13;;;;;;;24.35;42.50;102130.78;5056153;28;20033;-82
2022/06/28 08:03:49;;;;;;;7.90;2.28;;;;;;;24.46;40.99;102134.97;5055131;28;20048;-81
2022/06/28 08:06:15;;;;;;;8.20;2.00;;;;;;;24.33;42.69;102121.94;5055363;28;20021;-81
2022/06/28 08:08:40;;;;;;;7.07;2.20;;;;;;;24.59;43.88;102128.97;5055344;28;20155;-80
2022/06/28 08:11:06;;;;;;;6.35;1.90;;;;;;;24.65;39.83;102131.00;5055172;28;20028;-85
2022/06/28 08:13:31;;;;;;;5.45;1.75;;;;;;;24.94;41.74;102125.66;5062352;28;20025;-84
2022/06/28 08:15:59;;;;;;;7.20;2.20;;;;;;;24.84;39.38;102129.66;5068430;28;20033;-85
2022/06/28 08:18:24;;;;;;;10.55;1.70;;;;;;;24.91;41.10;102117.91;5056100;28;20108;-85
2022/06/28 08:20:49;;;;;;;6.97;1.88;;;;;;;25.15;38.76;102115.13;5055581;28;20116;-85
2022/06/28 08:23:16;;;;;;;6.07;1.70;;;;;;;25.34;39.52;102122.81;5055879;28;20056;-85
2022/06/28 08:25:42;;;;;;;6.45;2.03;;;;;;;25.58;40.74;102104.53;5055187;28;20827;-82
2022/06/28 08:28:08;;;;;;;5.82;2.10;;;;;;;25.71;37.85;102103.91;5055205;28;20028;-82
2022/06/28 08:30:33;;;;;;;9.02;2.03;;;;;;;25.93;36.60;102102.97;5059977;28;20474;-83
2022/06/28 08:32:59;;;;;;;5.00;1.67;;;;;;;26.02;37.34;102101.84;5061933;28;20508;-82
2022/06/28 08:35:24;;;;;;;6.50;1.90;;;;;;;26.19;37.57;102096.19;5066412;28;20109;-82
2022/06/28 08:37:49;;;;;;;4.05;1.50;;;;;;;26.32;38.04;102100.97;5054493;28;20298;-83
2022/06/28 08:40:15;;;;;;;4.47;1.30;;;;;;;26.35;36.76;102087.78;5075569;28;20042;-83
2022/06/28 08:42:48;;;;;;;5.75;1.45;;;;;;;26.30;38.73;102092.97;5075260;28;20020;-83
2022/06/28 08:45:16;;;;;;;3.58;1.40;;;;;;;26.75;34.96;102087.41;5066504;28;20025;-83
2022/06/28 08:47:43;;;;;;;6.05;1.42;;;;;;;27.00;35.83;102081.56;5054952;28;20017;-83
2022/06/28 08:50:17;;;;;;;6.35;1.58;;;;;;;27.05;35.25;102077.19;5054058;28;20013;-82
2022/06/28 08:52:43;;;;;;;4.72;1.40;;;;;;;27.08;34.47;102074.06;5053949;28;20029;-80
2022/06/28 08:55:10;;;;;;;4.82;1.23;;;;;;;27.21;33.25;102080.66;5056066;28;20028;-81
2022/06/28 08:57:36;;;;;;;6.63;1.30;;;;;;;27.35;32.31;102081.63;5054648;28;20029;-81
2022/06/28 09:00:10;;;;;;;5.43;1.42;;;;;;;27.36;34.66;102084.13;5054796;28;20403;-81
2022/06/28 09:02:36;;;;;;;6.70;1.30;;;;;;;27.55;32.61;102081.78;5055280;28;20029;-81
2022/06/28 09:05:03;;;;;;;6.35;1.30;;;;;;;27.61;34.24;102079.06;5054523;28;20055;-81
2022/06/28 09:07:29;;;;;;;3.13;1.17;;;;;;;27.69;32.56;102078.91;5052779;28;20511;-81
2022/06/28 09:09:55;;;;;;;3.03;1.40;;;;;;;27.87;32.99;102072.88;5054506;28;20025;-81
2022/06/28 09:12:21;;;;;;;3.72;1.35;;;;;;;27.90;33.21;102077.13;5052635;28;20045;-81
2022/06/28 09:14:46;;;;;;;5.07;1.25;;;;;;;27.98;32.02;102079.72;5061632;28;20415;-81
2022/06/28 09:17:19;;;;;;;5.03;1.50;;;;;;;28.09;34.18;102071.97;5074460;28;20025;-81
2022/06/28 09:19:45;;;;;;;2.85;0.95;;;;;;;28.28;32.46;102070.34;5073333;28;20085;-81
2022/06/28 09:22:27;;;;;;;4.75;1.40;;;;;;;28.66;34.76;102067.09;5074075;28;20032;-81
2022/06/28 09:24:53;;;;;;;6.65;1.83;;;;;;;28.74;32.34;102064.97;5065123;28;20044;-81
2022/06/28 09:27:27;;;;;;;3.40;1.20;;;;;;;28.88;32.69;102054.91;5053100;28;20414;-82
2022/06/28 09:29:53;;;;;;;3.58;1.00;;;;;;;28.94;30.89;102050.47;5037041;28;20087;-83
2022/06/28 09:32:29;;;;;;;2.25;0.88;;;;;;;28.96;32.12;102056.56;5049672;28;20028;-82
2022/06/28 09:34:58;;;;;;;4.03;1.30;;;;;;;29.03;31.89;102049.22;5049978;28;20057;-83
2022/06/28 09:37:36;;;;;;;3.42;0.90;;;;;;;29.31;33.12;102051.75;5051102;28;20399;-82
2022/06/28 09:40:09;;;;;;;3.67;1.45;;;;;;;29.33;32.17;102040.59;5050637;28;20031;-83
2022/06/28 09:42:34;;;;;;;3.38;1.05;;;;;;;29.40;29.93;102041.41;5050147;28;20565;-83
2022/06/28 09:44:59;;;;;;;3.93;1.00;;;;;;;29.40;29.07;102044.13;5052320;28;20096;-85
2022/06/28 09:47:25;;;;;;;5.50;1.05;;;;;;;29.52;31.07;102033.38;5054470;28;20358;-85
2022/06/28 09:49:50;;;;;;;3.83;1.10;;;;;;;29.47;31.42;102042.22;5055231;28;20021;-84
2022/06/28 09:52:17;;;;;;;4.00;1.30;;;;;;;29.77;30.68;102039.00;5050370;28;20090;-85
2022/06/28 09:54:48;;;;;;;3.55;1.30;;;;;;;29.77;31.59;102036.25;5051643;28;20375;-85
2022/06/28 09:57:18;;;;;;;3.30;1.00;;;;;;;29.67;30.55;102025.72;5050792;28;20036;-85
2022/06/28 09:59:43;;;;;;;4.32;1.33;;;;;;;29.61;29.87;102023.00;5049811;28;20033;-85
2022/06/28 10:02:15;;;;;;;3.40;1.33;;;;;;;29.78;31.43;102015.16;5051584;28;20033;-84
2022/06/28 10:04:47;;;;;;;4.30;1.20;;;;;;;30.03;31.29;102013.38;5051453;28;20128;-85
2022/06/28 10:07:13;;;;;;;5.25;1.60;;;;;;;29.89;29.13;102012.63;5051514;28;20047;-85
2022/06/28 10:09:39;;;;;;;5.57;1.40;;;;;;;29.95;31.62;102015.53;5051356;28;20108;-83
2022/06/28 10:15:03;;;;;;;5.57;1.15;;;;;;;30.44;28.73;102008.50;5053649;28;20098;-83
2022/06/28 10:17:40;;;;;;;3.33;1.00;;;;;;;30.55;29.39;102009.69;5051619;28;20553;-84
2022/06/28 10:20:09;;;;;;;5.53;0.98;;;;;;;30.79;29.44;102010.75;5052000;28;20033;-84
2022/06/28 10:22:35;;;;;;;5.75;1.15;;;;;;;30.89;28.90;102004.75;5051369;28;20643;-84
2022/06/28 10:25:02;;;;;;;5.45;1.40;;;;;;;30.76;29.48;102008.44;5051360;28;20062;-85
2022/06/28 10:27:29;;;;;;;5.43;1.30;;;;;;;30.62;27.59;102000.34;5048790;28;20029;-84
2022/06/28 10:29:58;;;;;;;3.50;1.20;;;;;;;30.68;29.63;102003.25;5050362;28;20414;-85
2022/06/28 10:32:51;;;;;;;3.97;1.40;;;;;;;31.20;30.92;101989.28;5050079;28;20075;-86
2022/06/28 10:35:28;;;;;;;3.35;1.30;;;;;;;31.24;30.24;101985.84;5048095;28;20495;-85
2022/06/28 10:38:16;;;;;;;6.43;1.23;;;;;;;31.59;30.83;101982.50;5050621;28;20025;-85
2022/06/28 10:40:42;;;;;;;3.08;0.90;;;;;;;31.46;27.36;101983.47;5037004;28;20507;-85
2022/06/28 10:43:08;;;;;;;3.80;1.20;;;;;;;31.79;28.94;101973.97;5029330;28;20033;-84
2022/06/28 10:46:04;;;;;;;4.57;1.30;;;;;;;32.05;29.57;101978.25;5032508;28;20494;-84
2022/06/28 10:48:31;;;;;;;4.65;1.20;;;;;;;31.72;27.97;101979.56;5054351;28;20028;-84
2022/06/28 10:50:57;;;;;;;3.00;0.93;;;;;;;31.95;26.10;101972.50;5051205;28;20033;-84
2022/06/28 10:53:24;;;;;;;4.13;0.98;;;;;;;32.16;25.10;101962.94;5051293;28;20071;-84
2022/06/28 10:56:12;;;;;;;3.20;0.93;;;;;;;32.34;28.45;101963.91;5049253;28;20040;-85
2022/06/28 10:58:55;;;;;;;3.25;1.10;;;;;;;32.33;27.98;101960.31;5050618;28;20025;-85
2022/06/28 11:01:39;;;;;;;3.65;0.85;;;;;;;32.38;29.22;101960.44;5039540;28;20515;-85
2022/06/28 11:04:11;;;;;;;3.78;0.90;;;;;;;32.26;28.36;101954.09;5053515;28;20084;-85
2022/06/28 11:06:44;;;;;;;5.57;0.98;;;;;;;32.20;28.10;101952.28;5053502;28;20025;-85
2022/06/28 11:09:44;;;;;;;3.42;1.00;;;;;;;32.14;27.93;101954.06;5053898;28;20456;-83
2022/06/28 11:12:16;;;;;;;2.30;1.05;;;;;;;32.05;27.53;101948.03;5054002;28;20064;-84
2022/06/28 11:14:47;;;;;;;3.90;1.08;;;;;;;32.14;27.80;101947.72;5052413;28;20029;-82
2022/06/28 11:17:18;;;;;;;5.10;1.55;;;;;;;32.02;27.27;101932.00;5053493;28;20032;-84
2022/06/28 11:19:53;;;;;;;2.00;1.10;;;;;;;32.16;26.70;101927.19;5053296;28;20029;-83
2022/06/28 11:22:20;;;;;;;4.22;0.80;;;;;;;32.55;26.18;101932.25;5052273;28;20026;-84
2022/06/28 11:24:46;;;;;;;2.75;0.95;;;;;;;32.45;26.11;101928.16;5053172;28;20028;-83
2022/06/28 11:27:21;;;;;;;1.92;0.77;;;;;;;32.09;26.63;101927.31;5053416;28;20017;-81
2022/06/28 11:29:53;;;;;;;4.68;0.90;;;;;;;31.65;27.29;101929.38;5053757;28;20116;-82
2022/06/28 11:32:24;;;;;;;2.72;0.98;;;;;;;31.45;27.23;101915.91;5053311;28;20044;-82
2022/06/28 11:34:56;;;;;;;2.28;0.73;;;;;;;31.22;26.95;101922.09;5053002;28;20387;-82